Time;durP1;ratioP1;P1;durP2;ratioP2;P2;SDS_P1;SDS_P2;PMS_P1;PMS_P2;Temp;Humidity;BMP_temperature;BMP_pressure;BME280_temperature;BME280_humidity;BME280_pressure;Samples;Min_cycle;Max_cycle;Signal;HPM_P1;HPM_P2
2022/07/15 00:02:10;;;;;;;2.83;1.13;;;32.40;36.10;;;;;;5075681;28;20489;-66
2022/07/15 00:04:38;;;;;;;0.40;0.40;;;32.40;36.20;;;;;;5080633;28;20041;-66
2022/07/15 00:07:07;;;;;;;0.10;0.10;;;32.40;36.20;;;;;;5074923;28;20056;-65
2022/07/15 00:12:20;;;;;;;0.65;0.20;;;32.40;36.20;;;;;;5069341;28;20101;-65
2022/07/15 00:14:47;;;;;;;0.25;0.10;;;32.40;36.30;;;;;;5076273;28;20035;-65
2022/07/15 00:17:14;;;;;;;0.55;0.13;;;32.40;36.30;;;;;;5070524;28;20117;-65
2022/07/15 00:19:41;;;;;;;0.10;0.10;;;32.40;36.30;;;;;;5078609;28;20109;-65
2022/07/15 00:22:08;;;;;;;0.30;0.30;;;32.30;36.30;;;;;;5079313;28;20036;-66
2022/07/15 00:24:37;;;;;;;0.30;0.20;;;32.30;36.30;;;;;;5074910;28;20032;-66
2022/07/15 00:27:05;;;;;;;0.28;0.28;;;32.30;36.30;;;;;;5072891;28;20040;-65
2022/07/15 00:29:32;;;;;;;0.17;0.10;;;32.30;36.30;;;;;;5073310;28;20502;-67
2022/07/15 00:32:00;;;;;;;0.63;0.30;;;32.20;36.30;;;;;;5074721;28;20585;-65
2022/07/15 00:34:27;;;;;;;0.50;0.30;;;32.20;36.30;;;;;;5077261;28;20486;-65
2022/07/15 00:36:54;;;;;;;0.40;0.40;;;32.30;36.40;;;;;;5077601;28;20082;-65
2022/07/15 00:39:21;;;;;;;0.90;0.10;;;32.20;36.40;;;;;;5071092;28;20045;-65
2022/07/15 00:41:50;;;;;;;0.10;0.10;;;32.20;36.40;;;;;;5082455;28;20075;-64
2022/07/15 00:44:17;;;;;;;0.90;0.28;;;32.20;36.40;;;;;;5074206;28;20055;-64
2022/07/15 00:46:44;;;;;;;0.20;0.17;;;32.20;36.40;;;;;;5079036;28;20040;-65
2022/07/15 00:49:12;;;;;;;1.33;0.15;;;32.20;36.40;;;;;;5068862;28;20040;-64
2022/07/15 00:51:42;;;;;;;0.10;0.10;;;32.20;36.50;;;;;;5067262;28;20097;-64
2022/07/15 00:54:10;;;;;;;0.30;0.10;;;32.10;36.40;;;;;;5074021;28;20572;-65
2022/07/15 00:56:40;;;;;;;0.90;0.10;;;32.10;36.40;;;;;;5082450;28;20401;-62
2022/07/15 00:59:09;;;;;;;0.15;0.10;;;32.10;36.40;;;;;;5054370;28;20579;-65
2022/07/15 01:01:36;;;;;;;0.55;0.10;;;32.10;36.50;;;;;;5078332;28;20505;-64
2022/07/15 01:04:05;;;;;;;0.63;0.20;;;32.10;36.50;;;;;;5074389;28;20469;-68
2022/07/15 01:06:33;;;;;;;0.10;0.10;;;32.10;36.50;;;;;;5076446;28;20135;-65
2022/07/15 01:09:00;;;;;;;0.43;0.20;;;32.10;36.50;;;;;;5071748;28;20139;-65
2022/07/15 01:11:30;;;;;;;0.40;0.20;;;32.00;36.40;;;;;;5074235;28;20050;-65
2022/07/15 01:13:59;;;;;;;0.68;0.30;;;32.10;36.60;;;;;;5077908;28;20056;-64
2022/07/15 01:16:27;;;;;;;0.43;0.40;;;32.10;36.60;;;;;;5077369;28;20044;-64
2022/07/15 01:18:55;;;;;;;0.38;0.10;;;32.00;36.50;;;;;;5082658;28;20059;-64
2022/07/15 01:21:27;;;;;;;0.20;0.10;;;32.00;36.60;;;;;;5076935;28;20047;-65
2022/07/15 01:23:56;;;;;;;0.25;0.10;;;32.00;36.60;;;;;;5065093;28;20040;-66
2022/07/15 01:26:42;;;;;;;0.50;0.10;;;32.00;36.60;;;;;;5056359;28;20044;-65
2022/07/15 01:29:12;;;;;;;1.65;0.20;;;32.00;36.60;;;;;;5063794;28;20122;-65
2022/07/15 01:31:39;;;;;;;0.20;0.10;;;32.00;36.70;;;;;;5081332;28;20056;-66
2022/07/15 01:34:06;;;;;;;0.10;0.10;;;31.90;36.60;;;;;;5080875;28;20066;-65
2022/07/15 01:36:36;;;;;;;0.28;0.10;;;31.90;36.60;;;;;;5079098;28;20058;-64
2022/07/15 01:39:04;;;;;;;1.42;0.50;;;31.90;36.60;;;;;;5055604;28;20130;-65
2022/07/15 01:41:32;;;;;;;0.20;0.20;;;31.90;36.60;;;;;;5088532;28;20126;-65
2022/07/15 01:43:59;;;;;;;0.10;0.10;;;31.90;36.70;;;;;;5084101;28;20040;-65
2022/07/15 01:46:26;;;;;;;0.17;0.10;;;31.90;36.70;;;;;;5085898;28;20050;-65
2022/07/15 01:51:42;;;;;;;1.08;0.10;;;31.90;36.70;;;;;;5082271;28;20040;-65
2022/07/15 01:54:09;;;;;;;0.10;0.10;;;31.90;36.70;;;;;;5071852;28;20713;-65
2022/07/15 01:56:37;;;;;;;0.15;0.10;;;31.80;36.70;;;;;;5078095;28;20051;-65
2022/07/15 01:59:04;;;;;;;0.28;0.10;;;31.80;36.70;;;;;;5093418;28;20131;-66
2022/07/15 02:01:32;;;;;;;0.52;0.10;;;31.80;36.70;;;;;;5074701;28;20059;-65
2022/07/15 02:04:05;;;;;;;1.52;0.10;;;31.80;36.80;;;;;;5080832;28;20123;-65
2022/07/15 02:06:32;;;;;;;0.20;0.20;;;31.80;36.80;;;;;;5079544;28;20871;-65
2022/07/15 02:09:01;;;;;;;0.75;0.10;;;31.70;36.70;;;;;;5072666;28;20117;-65
2022/07/15 02:11:30;;;;;;;0.20;0.10;;;31.80;36.80;;;;;;5076430;28;20460;-65
2022/07/15 02:13:59;;;;;;;0.10;0.10;;;31.70;36.80;;;;;;5069786;28;20124;-65
2022/07/15 02:16:27;;;;;;;0.20;0.10;;;31.70;36.80;;;;;;5079706;28;20052;-67
2022/07/15 02:18:57;;;;;;;0.17;0.10;;;31.70;36.80;;;;;;5082090;28;20048;-65
2022/07/15 02:21:26;;;;;;;0.30;0.10;;;31.70;36.80;;;;;;5076470;28;20036;-65
2022/07/15 02:23:53;;;;;;;0.10;0.00;;;31.70;36.80;;;;;;5078536;28;20089;-67
2022/07/15 02:26:22;;;;;;;0.55;0.20;;;31.70;36.80;;;;;;5072474;28;20127;-66
2022/07/15 02:28:49;;;;;;;0.35;0.10;;;31.70;36.90;;;;;;5082752;28;20416;-66
2022/07/15 02:31:17;;;;;;;0.40;0.10;;;31.70;36.90;;;;;;5086162;28;20048;-66
2022/07/15 02:33:45;;;;;;;0.85;0.30;;;31.70;36.90;;;;;;5081096;28;20533;-65
2022/07/15 02:36:12;;;;;;;0.20;0.20;;;31.70;36.90;;;;;;5075582;28;20394;-66
2022/07/15 02:38:41;;;;;;;0.15;0.10;;;31.60;36.80;;;;;;5074677;28;20528;-66
2022/07/15 02:41:12;;;;;;;0.20;0.17;;;31.60;36.90;;;;;;5085161;28;20101;-65
2022/07/15 02:43:42;;;;;;;0.17;0.10;;;31.60;36.90;;;;;;5049186;28;20802;-65
2022/07/15 02:46:11;;;;;;;0.17;0.17;;;31.60;36.90;;;;;;5081004;28;20075;-65
2022/07/15 02:48:39;;;;;;;0.63;0.63;;;31.60;36.90;;;;;;5062264;28;20044;-65
2022/07/15 02:51:08;;;;;;;0.55;0.20;;;31.60;36.90;;;;;;5086262;28;20044;-65
2022/07/15 02:53:35;;;;;;;0.50;0.50;;;31.50;36.90;;;;;;5075645;28;20044;-65
2022/07/15 02:56:09;;;;;;;0.10;0.10;;;31.50;36.90;;;;;;5082347;28;20049;-65
2022/07/15 02:58:36;;;;;;;2.55;0.10;;;31.50;36.90;;;;;;5076889;28;20045;-65
2022/07/15 03:01:05;;;;;;;0.13;0.13;;;31.50;36.90;;;;;;5080715;28;20048;-65
2022/07/15 03:03:34;;;;;;;0.10;0.10;;;31.50;37.50;;;;;;5077475;28;20411;-64
2022/07/15 03:06:01;;;;;;;0.20;0.20;;;31.50;36.90;;;;;;5058765;28;20143;-66
2022/07/15 03:08:28;;;;;;;0.00;0.00;;;31.50;36.90;;;;;;5055092;28;20463;-66
2022/07/15 03:10:56;;;;;;;0.75;0.10;;;31.50;36.90;;;;;;5078202;28;20056;-66
2022/07/15 03:13:25;;;;;;;0.38;0.10;;;31.50;37.00;;;;;;5081119;28;20106;-66
2022/07/15 03:15:52;;;;;;;0.50;0.10;;;31.50;36.90;;;;;;5079302;28;20040;-66
2022/07/15 03:18:21;;;;;;;0.15;0.10;;;31.40;36.90;;;;;;5067515;28;20135;-66
2022/07/15 03:20:49;;;;;;;0.17;0.10;;;31.50;37.00;;;;;;5082256;28;20135;-64
2022/07/15 03:23:16;;;;;;;0.17;0.10;;;31.40;36.90;;;;;;5074938;28;20051;-65
2022/07/15 03:25:44;;;;;;;0.25;0.10;;;31.40;36.90;;;;;;5078596;28;20047;-64
2022/07/15 03:28:14;;;;;;;0.25;0.10;;;31.40;36.90;;;;;;5082040;28;20127;-65
2022/07/15 03:30:42;;;;;;;0.10;0.10;;;31.40;37.00;;;;;;5072739;28;20054;-67
2022/07/15 03:33:12;;;;;;;0.43;0.10;;;31.40;36.90;;;;;;5061407;28;20040;-65
2022/07/15 03:35:43;;;;;;;0.30;0.30;;;31.40;36.90;;;;;;5069137;28;20049;-64
2022/07/15 03:38:11;;;;;;;0.17;0.10;;;31.40;36.90;;;;;;5079676;28;20052;-65
2022/07/15 03:40:38;;;;;;;0.10;0.10;;;31.40;36.90;;;;;;5081369;28;20413;-64
2022/07/15 03:43:06;;;;;;;0.40;0.10;;;31.30;36.90;;;;;;5078209;28;20080;-64
2022/07/15 03:45:35;;;;;;;0.10;0.10;;;31.30;36.90;;;;;;5078351;28;20500;-64
2022/07/15 03:48:02;;;;;;;0.30;0.30;;;31.30;36.90;;;;;;5058192;28;20054;-66
2022/07/15 03:50:33;;;;;;;0.55;0.10;;;31.30;36.90;;;;;;5084933;28;20791;-65
2022/07/15 03:53:04;;;;;;;0.82;0.40;;;31.30;36.90;;;;;;5075369;28;20049;-65
2022/07/15 03:55:31;;;;;;;0.10;0.10;;;31.30;36.90;;;;;;5083149;28;20040;-65
2022/07/15 03:57:58;;;;;;;0.10;0.10;;;31.30;37.50;;;;;;5084679;28;20052;-65
2022/07/15 04:00:25;;;;;;;0.80;0.45;;;31.30;36.80;;;;;;5086021;28;20043;-64
2022/07/15 04:02:52;;;;;;;0.00;0.00;;;31.30;36.90;;;;;;5067820;28;20040;-65
2022/07/15 04:05:20;;;;;;;0.05;0.03;;;31.30;36.80;;;;;;5073072;28;20084;-65
2022/07/15 04:07:47;;;;;;;0.08;0.00;;;31.30;36.80;;;;;;5077978;28;20050;-66
2022/07/15 04:10:15;;;;;;;0.70;0.43;;;31.30;36.90;;;;;;5079226;28;20040;-64
2022/07/15 04:12:43;;;;;;;1.45;0.10;;;31.30;36.80;;;;;;5074988;28;20500;-65
2022/07/15 04:15:11;;;;;;;0.10;0.10;;;31.30;36.80;;;;;;5059919;28;20041;-65
2022/07/15 04:17:38;;;;;;;0.10;0.10;;;31.30;36.80;;;;;;5067175;28;20124;-65
2022/07/15 04:20:06;;;;;;;0.52;0.10;;;31.30;37.40;;;;;;5057876;28;20071;-65
2022/07/15 04:22:39;;;;;;;0.43;0.10;;;31.30;36.80;;;;;;5065058;28;20051;-65
2022/07/15 04:25:08;;;;;;;0.43;0.00;;;31.30;36.80;;;;;;5077976;28;20158;-64
2022/07/15 04:27:36;;;;;;;0.32;0.20;;;31.20;36.70;;;;;;5076643;28;20514;-64
2022/07/15 04:30:05;;;;;;;0.43;0.10;;;31.20;36.70;;;;;;5050391;28;20528;-65
2022/07/15 04:32:41;;;;;;;1.10;0.25;;;31.20;36.70;;;;;;5057802;28;20048;-65
2022/07/15 04:35:09;;;;;;;0.10;0.10;;;31.20;36.80;;;;;;5081692;28;20121;-65
2022/07/15 04:37:36;;;;;;;0.38;0.10;;;31.20;36.80;;;;;;5071969;28;20056;-65
2022/07/15 04:40:04;;;;;;;0.30;0.10;;;31.20;36.80;;;;;;5075620;28;20070;-65
2022/07/15 04:42:32;;;;;;;0.77;0.10;;;31.20;36.80;;;;;;5075322;28;20123;-65
2022/07/15 04:45:00;;;;;;;0.10;0.10;;;31.20;36.80;;;;;;5050300;28;20497;-64
2022/07/15 04:47:27;;;;;;;0.20;0.10;;;31.20;36.80;;;;;;5072527;28;20072;-65
2022/07/15 04:52:59;;;;;;;0.40;0.20;;;31.20;36.70;;;;;;5001282;28;20490;-64
2022/07/15 04:55:27;;;;;;;0.00;0.00;;;31.20;36.70;;;;;;5001667;28;20430;-64
2022/07/15 04:58:02;;;;;;;0.45;0.08;;;31.20;36.70;;;;;;5018264;28;20062;-64
2022/07/15 05:00:31;;;;;;;0.10;0.10;;;31.20;36.70;;;;;;5002317;28;20080;-64
2022/07/15 05:02:58;;;;;;;0.10;0.10;;;31.20;36.70;;;;;;4978749;28;20192;-64
2022/07/15 05:05:28;;;;;;;0.20;0.20;;;31.10;36.60;;;;;;5018830;28;20061;-64
2022/07/15 05:07:56;;;;;;;0.40;0.10;;;31.10;36.60;;;;;;5003088;28;20090;-64
2022/07/15 05:10:23;;;;;;;0.38;0.10;;;31.10;36.60;;;;;;5019382;28;20053;-66
2022/07/15 05:13:02;;;;;;;0.35;0.10;;;31.10;36.60;;;;;;5009407;28;20045;-65
2022/07/15 05:15:33;;;;;;;1.42;0.10;;;31.10;36.60;;;;;;5004546;28;20175;-65
2022/07/15 05:18:10;;;;;;;0.20;0.10;;;31.10;36.50;;;;;;5003880;28;20057;-64
2022/07/15 05:20:38;;;;;;;0.10;0.10;;;31.10;36.50;;;;;;5002978;28;20065;-65
2022/07/15 05:23:05;;;;;;;0.90;0.30;;;31.10;36.60;;;;;;5029038;28;20053;-66
2022/07/15 05:25:36;;;;;;;0.10;0.10;;;31.10;36.50;;;;;;5081466;28;20056;-64
2022/07/15 05:28:04;;;;;;;0.10;0.10;;;31.10;36.50;;;;;;5075622;28;20044;-65
2022/07/15 05:30:35;;;;;;;0.52;0.10;;;31.10;36.60;;;;;;5074102;28;20036;-65
2022/07/15 05:33:03;;;;;;;0.43;0.10;;;31.10;36.50;;;;;;5046814;28;20066;-65
2022/07/15 05:35:30;;;;;;;0.68;0.10;;;31.10;36.60;;;;;;5055946;28;20044;-66
2022/07/15 05:37:57;;;;;;;0.20;0.10;;;31.10;36.50;;;;;;5082871;28;20073;-65
2022/07/15 05:40:29;;;;;;;1.25;0.17;;;31.10;36.50;;;;;;5082378;28;20040;-64
2022/07/15 05:42:56;;;;;;;0.43;0.17;;;31.10;36.50;;;;;;5076397;28;20082;-63
2022/07/15 05:45:24;;;;;;;0.10;0.10;;;31.10;37.10;;;;;;5077609;28;20039;-64
2022/07/15 05:48:05;;;;;;;0.52;0.10;;;31.10;36.50;;;;;;5054482;28;20040;-64
2022/07/15 05:50:38;;;;;;;0.52;0.20;;;31.10;36.50;;;;;;5066836;28;20813;-65
2022/07/15 05:53:06;;;;;;;0.20;0.20;;;31.10;36.50;;;;;;5078593;28;20037;-64
2022/07/15 05:55:34;;;;;;;0.52;0.52;;;31.10;36.50;;;;;;5084774;28;20060;-63
2022/07/15 05:58:05;;;;;;;0.80;0.10;;;31.10;36.40;;;;;;5077021;28;20048;-65
2022/07/15 06:00:34;;;;;;;0.10;0.10;;;31.10;36.40;;;;;;5078285;28;20715;-65
2022/07/15 06:03:01;;;;;;;1.30;0.10;;;31.10;36.40;;;;;;5073998;28;20036;-65
2022/07/15 06:05:32;;;;;;;0.60;0.10;;;31.20;36.80;;;;;;5077860;28;20075;-65
2022/07/15 06:08:02;;;;;;;0.08;0.08;;;31.20;36.50;;;;;;5078143;28;20056;-65
2022/07/15 06:10:34;;;;;;;0.10;0.08;;;31.20;36.50;;;;;;5080849;28;20047;-65
2022/07/15 06:13:02;;;;;;;0.40;0.20;;;31.20;36.50;;;;;;5083591;28;20052;-65
2022/07/15 06:15:29;;;;;;;0.20;0.10;;;31.20;36.40;;;;;;5081061;28;20565;-65
2022/07/15 06:17:58;;;;;;;0.10;0.10;;;31.20;36.40;;;;;;5086155;28;20054;-67
2022/07/15 06:20:27;;;;;;;1.13;0.10;;;31.20;36.40;;;;;;5085967;28;20048;-66
2022/07/15 06:22:57;;;;;;;0.15;0.10;;;31.20;36.40;;;;;;5085522;28;20041;-64
2022/07/15 06:25:24;;;;;;;1.27;0.00;;;31.20;36.30;;;;;;5079853;28;20052;-65
2022/07/15 06:27:52;;;;;;;0.47;0.10;;;31.20;36.30;;;;;;5080305;28;20857;-65
2022/07/15 06:30:19;;;;;;;0.20;0.10;;;31.20;36.30;;;;;;5075689;28;20075;-64
2022/07/15 06:32:46;;;;;;;0.10;0.10;;;31.20;36.30;;;;;;5077001;28;20064;-65
2022/07/15 06:35:13;;;;;;;0.08;0.08;;;31.20;36.30;;;;;;5086727;28;20044;-65
2022/07/15 06:37:40;;;;;;;0.10;0.00;;;31.20;36.30;;;;;;5082528;28;20495;-65
2022/07/15 06:40:10;;;;;;;0.10;0.10;;;31.20;36.30;;;;;;5082244;28;20139;-65
2022/07/15 06:42:38;;;;;;;0.10;0.10;;;31.30;36.30;;;;;;5076401;28;20094;-65
2022/07/15 06:45:10;;;;;;;0.10;0.10;;;31.30;36.30;;;;;;5070888;28;20039;-64
2022/07/15 06:47:40;;;;;;;0.50;0.10;;;31.30;36.30;;;;;;5075592;28;20036;-64
2022/07/15 06:50:09;;;;;;;0.10;0.10;;;31.30;36.30;;;;;;5075962;28;20081;-65
2022/07/15 06:52:36;;;;;;;1.55;0.10;;;31.30;36.20;;;;;;5079878;28;20064;-65
2022/07/15 06:55:06;;;;;;;0.20;0.20;;;31.30;36.20;;;;;;5082640;28;20505;-65
2022/07/15 06:57:35;;;;;;;0.73;0.10;;;31.30;36.20;;;;;;5072340;28;20127;-62
2022/07/15 07:00:02;;;;;;;0.15;0.10;;;31.30;36.20;;;;;;5077685;28;20048;-67
2022/07/15 07:02:31;;;;;;;0.43;0.10;;;31.30;36.10;;;;;;5077404;28;20075;-65
2022/07/15 07:04:58;;;;;;;0.70;0.10;;;31.30;36.10;;;;;;5082349;28;20069;-65
2022/07/15 07:07:25;;;;;;;0.40;0.10;;;31.30;36.10;;;;;;5077877;28;20079;-66
2022/07/15 07:09:52;;;;;;;1.23;0.10;;;31.30;36.00;;;;;;5084359;28;20543;-66
2022/07/15 07:12:19;;;;;;;0.10;0.10;;;31.30;36.00;;;;;;5075384;28;20532;-66
2022/07/15 07:14:48;;;;;;;1.58;0.10;;;31.30;36.00;;;;;;5075312;28;20132;-66
2022/07/15 07:17:15;;;;;;;0.60;0.10;;;31.40;36.00;;;;;;5071761;28;20120;-66
2022/07/15 07:19:42;;;;;;;0.10;0.10;;;31.40;36.00;;;;;;5078665;28;20056;-65
2022/07/15 07:22:10;;;;;;;0.10;0.10;;;31.30;35.90;;;;;;5072719;28;20040;-66
2022/07/15 07:24:37;;;;;;;7.82;0.17;;;31.40;36.00;;;;;;5074641;28;20039;-54
2022/07/15 07:27:04;;;;;;;3.22;0.30;;;31.40;34.50;;;;;;5072334;28;20036;-54
2022/07/15 07:29:31;;;;;;;5.10;0.35;;;31.30;32.50;;;;;;5082548;28;20163;-54
2022/07/15 07:32:00;;;;;;;5.68;0.47;;;31.10;31.60;;;;;;5082164;28;20042;-54
2022/07/15 07:34:27;;;;;;;0.45;0.45;;;30.80;31.10;;;;;;5082178;28;20078;-52
2022/07/15 07:36:54;;;;;;;1.70;0.25;;;30.60;30.90;;;;;;5079485;28;20064;-51
2022/07/15 07:39:21;;;;;;;1.30;0.13;;;30.40;30.70;;;;;;5078236;28;20051;-56
2022/07/15 07:41:52;;;;;;;2.78;0.35;;;30.10;30.70;;;;;;5081862;28;20051;-52
2022/07/15 07:44:20;;;;;;;6.80;0.10;;;30.00;30.80;;;;;;5081015;28;20137;-50
2022/07/15 07:46:47;;;;;;;0.95;0.10;;;29.80;30.60;;;;;;5079388;28;20046;-55
2022/07/15 07:49:15;;;;;;;0.60;0.22;;;29.60;30.50;;;;;;5080296;28;20044;-56
2022/07/15 07:51:42;;;;;;;0.95;0.32;;;29.50;30.50;;;;;;5078258;28;20517;-52
2022/07/15 07:54:10;;;;;;;0.85;0.20;;;29.40;30.40;;;;;;5072033;28;20100;-51
2022/07/15 07:56:37;;;;;;;2.47;0.20;;;29.30;31.00;;;;;;5080867;28;20042;-56
2022/07/15 07:59:04;;;;;;;2.90;0.10;;;29.20;31.20;;;;;;5090524;28;20086;-55
2022/07/15 08:01:31;;;;;;;5.05;0.30;;;29.20;31.20;;;;;;5078190;28;20063;-60
2022/07/15 08:03:58;;;;;;;15.10;1.60;;;29.20;31.30;;;;;;5084071;28;20083;-52
2022/07/15 08:06:26;;;;;;;1.80;0.40;;;29.20;30.80;;;;;;5075829;28;20064;-55
2022/07/15 08:08:53;;;;;;;15.38;1.15;;;29.20;30.50;;;;;;5080811;28;20110;-55
2022/07/15 08:11:20;;;;;;;4.30;0.20;;;29.00;30.50;;;;;;5085089;28;20037;-60
2022/07/15 08:13:48;;;;;;;11.23;0.10;;;28.80;30.40;;;;;;5078296;28;20067;-59
2022/07/15 08:16:15;;;;;;;33.28;1.33;;;28.70;30.60;;;;;;5085542;28;20511;-56
2022/07/15 08:18:44;;;;;;;7.85;0.20;;;28.50;31.00;;;;;;5079188;28;20056;-56
2022/07/15 08:21:11;;;;;;;1.95;0.30;;;28.40;31.20;;;;;;5089264;28;20562;-50
2022/07/15 08:23:39;;;;;;;6.32;1.35;;;28.40;31.20;;;;;;5076033;28;20054;-58
2022/07/15 08:26:07;;;;;;;0.50;0.10;;;28.30;31.10;;;;;;5076110;28;20423;-63
2022/07/15 08:28:34;;;;;;;23.60;6.72;;;28.30;31.30;;;;;;5067975;28;20040;-62
2022/07/15 08:31:02;;;;;;;11.85;4.80;;;28.20;31.50;;;;;;5076815;28;20036;-51
2022/07/15 08:33:29;;;;;;;13.15;2.28;;;28.20;31.50;;;;;;5072028;28;20105;-60
2022/07/15 08:35:56;;;;;;;2.80;0.80;;;28.10;31.50;;;;;;5076871;28;20111;-53
2022/07/15 08:38:23;;;;;;;4.43;0.50;;;28.00;31.50;;;;;;5082494;28;20101;-53
2022/07/15 08:40:51;;;;;;;2.92;0.20;;;28.00;31.60;;;;;;5081790;28;20040;-53
2022/07/15 08:43:19;;;;;;;1.92;0.17;;;27.90;31.60;;;;;;5079396;28;20127;-52
2022/07/15 08:45:46;;;;;;;3.05;0.73;;;27.80;31.70;;;;;;5084859;28;20040;-53
2022/07/15 08:48:14;;;;;;;3.15;0.43;;;27.80;31.80;;;;;;5080653;28;20028;-53
2022/07/15 08:50:43;;;;;;;1.10;0.10;;;27.70;31.80;;;;;;5080219;28;20039;-53
2022/07/15 08:53:10;;;;;;;3.05;0.85;;;27.70;31.70;;;;;;5083729;28;20040;-54
2022/07/15 08:55:37;;;;;;;0.20;0.20;;;27.70;31.60;;;;;;5070960;28;20480;-56
2022/07/15 08:58:05;;;;;;;2.15;0.10;;;27.60;31.70;;;;;;5079316;28;20518;-53
2022/07/15 09:00:33;;;;;;;0.90;0.35;;;27.60;31.80;;;;;;5079514;28;20122;-53
2022/07/15 09:03:04;;;;;;;1.70;0.52;;;27.60;31.90;;;;;;5077744;28;20424;-53
2022/07/15 09:05:33;;;;;;;3.38;0.20;;;27.60;32.10;;;;;;5078973;28;20052;-54
2022/07/15 09:08:03;;;;;;;0.70;0.30;;;27.60;32.60;;;;;;5079998;28;20047;-54
2022/07/15 09:10:45;;;;;;;5.65;0.17;;;27.60;32.90;;;;;;5078647;28;20093;-47
2022/07/15 09:13:24;;;;;;;5.25;0.47;;;27.60;32.90;;;;;;5073467;28;20137;-52
2022/07/15 09:15:52;;;;;;;0.98;0.10;;;27.60;32.90;;;;;;5087714;28;20588;-53
2022/07/15 09:18:22;;;;;;;1.33;0.10;;;27.60;32.80;;;;;;5074953;28;20068;-51
2022/07/15 09:20:50;;;;;;;0.90;0.10;;;27.60;32.60;;;;;;5087259;28;20726;-56
2022/07/15 09:23:29;;;;;;;1.85;0.15;;;27.60;32.60;;;;;;5078660;28;20060;-52
2022/07/15 09:25:56;;;;;;;1.95;0.20;;;27.70;32.40;;;;;;5072047;28;20135;-54
2022/07/15 09:28:37;;;;;;;6.75;1.05;;;27.70;32.30;;;;;;5069966;28;20035;-54
2022/07/15 09:33:51;;;;;;;4.88;0.38;;;27.80;32.20;;;;;;5083867;28;20040;-50
2022/07/15 09:36:21;;;;;;;3.38;0.10;;;27.80;32.10;;;;;;5081537;28;20041;-69
2022/07/15 09:38:50;;;;;;;0.70;0.10;;;27.90;32.00;;;;;;5086155;28;20139;-69
2022/07/15 09:41:26;;;;;;;2.53;0.65;;;27.90;31.70;;;;;;5075611;28;20045;-61
2022/07/15 09:43:56;;;;;;;1.02;0.10;;;27.90;31.50;;;;;;5094952;28;20042;-67
2022/07/15 09:46:27;;;;;;;0.35;0.30;;;28.00;31.10;;;;;;5084091;28;20060;-67
2022/07/15 09:48:55;;;;;;;2.70;0.10;;;27.90;30.80;;;;;;5076162;28;20091;-64
2022/07/15 09:51:23;;;;;;;1.58;0.10;;;28.00;30.80;;;;;;5087159;28;20036;-66
2022/07/15 09:53:51;;;;;;;7.13;0.10;;;28.00;30.70;;;;;;5075503;28;20029;-66
2022/07/15 09:56:23;;;;;;;3.03;0.20;;;28.00;30.60;;;;;;5082704;28;20067;-67
2022/07/15 09:58:51;;;;;;;2.38;0.90;;;28.10;30.80;;;;;;5097013;28;20040;-69
2022/07/15 10:01:20;;;;;;;13.73;0.22;;;28.10;30.80;;;;;;5084056;28;20540;-70
2022/07/15 10:03:50;;;;;;;0.40;0.38;;;28.10;30.80;;;;;;5089613;28;20043;-71
2022/07/15 10:06:19;;;;;;;1.95;0.22;;;28.20;31.00;;;;;;5071960;28;20489;-69
2022/07/15 10:08:48;;;;;;;0.10;0.10;;;28.20;30.80;;;;;;5084122;28;20040;-70
2022/07/15 10:11:16;;;;;;;1.20;0.10;;;28.20;30.50;;;;;;5084706;28;20170;-68
2022/07/15 10:14:15;;;;;;;0.30;0.10;;;28.20;30.40;;;;;;5080440;28;20485;-67
2022/07/15 10:17:02;;;;;;;0.65;0.10;;;28.30;30.20;;;;;;5085180;28;20102;-70
2022/07/15 10:19:50;;;;;;;1.65;0.10;;;28.30;30.00;;;;;;5084651;28;20040;-69
2022/07/15 10:22:30;;;;;;;2.38;0.57;;;28.30;30.20;;;;;;5081579;28;20044;-71
2022/07/15 10:25:16;;;;;;;3.00;0.10;;;28.40;30.20;;;;;;5080222;28;20140;-70
2022/07/15 10:27:55;;;;;;;0.47;0.13;;;28.40;30.50;;;;;;5090347;28;20113;-71
2022/07/15 10:30:24;;;;;;;2.15;0.60;;;28.50;30.70;;;;;;5075591;28;20036;-70
2022/07/15 10:33:13;;;;;;;5.15;1.23;;;28.50;30.30;;;;;;5076497;28;20039;-69
2022/07/15 10:35:43;;;;;;;2.38;0.10;;;28.60;30.10;;;;;;5079167;28;20097;-62
2022/07/15 10:38:25;;;;;;;0.20;0.20;;;28.60;29.90;;;;;;5080605;28;20459;-63
2022/07/15 10:41:01;;;;;;;1.42;0.60;;;28.60;29.60;;;;;;5080201;28;20068;-54
2022/07/15 10:43:39;;;;;;;0.90;0.10;;;28.70;29.40;;;;;;5086633;28;20488;-64
2022/07/15 10:46:19;;;;;;;1.98;0.10;;;28.70;29.20;;;;;;5093151;28;20122;-65
2022/07/15 10:48:49;;;;;;;3.15;0.20;;;28.70;28.90;;;;;;5073579;28;20048;-60
2022/07/15 10:51:44;;;;;;;4.30;0.38;;;28.80;28.80;;;;;;5075161;28;20071;-62
2022/07/15 10:54:32;;;;;;;1.55;0.03;;;28.90;29.00;;;;;;5075203;28;20043;-61
2022/07/15 10:57:00;;;;;;;0.10;0.08;;;28.90;29.70;;;;;;5090068;28;20040;-59
2022/07/15 10:59:27;;;;;;;2.40;0.10;;;28.90;30.00;;;;;;5079284;28;20044;-60
2022/07/15 11:02:13;;;;;;;16.45;0.17;;;28.90;29.80;;;;;;5081986;28;20043;-53
2022/07/15 11:04:42;;;;;;;1.42;0.10;;;29.10;30.00;;;;;;5081246;28;20044;-55
2022/07/15 11:07:26;;;;;;;13.77;0.15;;;29.10;30.50;;;;;;5074332;28;20049;-61
2022/07/15 11:09:55;;;;;;;1.13;0.10;;;29.20;30.80;;;;;;5078814;28;20126;-70
2022/07/15 11:12:24;;;;;;;1.85;0.08;;;29.20;31.10;;;;;;5081523;28;20036;-52
2022/07/15 11:14:54;;;;;;;1.38;0.10;;;29.40;31.40;;;;;;5078922;28;20817;-66
2022/07/15 11:17:25;;;;;;;7.45;0.10;;;29.40;31.70;;;;;;5078884;28;20044;-64
2022/07/15 11:19:56;;;;;;;7.03;0.10;;;29.60;32.10;;;;;;5084333;28;20043;-65
2022/07/15 11:22:26;;;;;;;2.72;0.15;;;29.80;37.30;;;;;;5071411;28;20043;-58
2022/07/15 11:24:55;;;;;;;5.13;0.20;;;30.00;36.40;;;;;;5071463;28;20044;-52
2022/07/15 11:27:23;;;;;;;1.63;0.08;;;30.30;36.10;;;;;;5081514;28;20042;-54
2022/07/15 11:29:52;;;;;;;2.00;0.10;;;30.50;35.40;;;;;;5068604;28;20072;-50
2022/07/15 11:32:22;;;;;;;1.75;0.10;;;30.80;34.80;;;;;;5071870;28;20128;-46
2022/07/15 11:34:52;;;;;;;0.38;0.20;;;31.00;34.70;;;;;;5069108;28;20121;-51
2022/07/15 11:37:25;;;;;;;1.25;0.00;;;31.30;34.60;;;;;;5074972;28;20043;-48
2022/07/15 11:40:07;;;;;;;0.30;0.10;;;31.60;34.30;;;;;;5080912;28;20045;-53
2022/07/15 11:45:33;;;;;;;0.77;0.38;;;32.10;33.70;;;;;;5072320;28;20741;-51
2022/07/15 11:48:00;;;;;;;0.52;0.15;;;32.40;32.50;;;;;;5071721;28;20749;-54
2022/07/15 11:50:28;;;;;;;3.55;0.10;;;32.70;31.80;;;;;;5077963;28;20105;-52
2022/07/15 11:52:59;;;;;;;0.10;0.10;;;33.00;31.10;;;;;;5084143;28;20452;-51
2022/07/15 11:55:26;;;;;;;0.30;0.30;;;33.20;30.60;;;;;;5073749;28;20044;-48
2022/07/15 11:57:54;;;;;;;2.40;0.10;;;33.50;30.30;;;;;;5078243;28;20040;-49
2022/07/15 12:00:30;;;;;;;0.73;0.10;;;33.70;30.20;;;;;;5065574;28;20492;-53
2022/07/15 12:03:07;;;;;;;0.73;0.10;;;33.90;30.00;;;;;;5076976;28;20136;-56
2022/07/15 12:05:35;;;;;;;0.10;0.10;;;34.20;29.70;;;;;;5058031;28;20044;-52
2022/07/15 12:08:04;;;;;;;0.70;0.00;;;34.30;29.60;;;;;;5079387;28;20123;-57
2022/07/15 12:10:38;;;;;;;0.98;0.00;;;34.50;29.90;;;;;;5072966;28;20036;-58
2022/07/15 12:13:06;;;;;;;0.70;0.10;;;34.70;29.30;;;;;;5071444;28;20420;-58
2022/07/15 12:15:34;;;;;;;0.17;0.10;;;34.80;29.10;;;;;;5075343;28;20039;-60
2022/07/15 12:18:02;;;;;;;0.43;0.10;;;34.80;29.00;;;;;;5075155;28;20047;-55
2022/07/15 12:20:30;;;;;;;1.65;0.30;;;35.00;29.00;;;;;;5075566;28;20055;-57
2022/07/15 12:23:07;;;;;;;0.00;0.00;;;35.10;28.80;;;;;;5083022;28;20135;-54
2022/07/15 12:25:35;;;;;;;2.65;0.03;;;35.20;28.70;;;;;;5062449;28;20094;-54
2022/07/15 12:28:02;;;;;;;0.20;0.00;;;35.30;28.50;;;;;;5079245;28;20040;-54
2022/07/15 12:30:34;;;;;;;0.00;0.00;;;35.40;28.40;;;;;;5076226;28;20048;-53
2022/07/15 12:33:21;;;;;;;0.10;0.10;;;35.60;28.40;;;;;;5077511;28;20464;-59
2022/07/15 12:35:49;;;;;;;0.20;0.05;;;35.60;28.20;;;;;;5077418;28;20041;-53
2022/07/15 12:38:35;;;;;;;0.00;0.00;;;35.70;28.10;;;;;;5078723;28;20497;-52
2022/07/15 12:41:06;;;;;;;0.00;0.00;;;35.80;28.10;;;;;;5086869;28;20048;-61
2022/07/15 12:43:51;;;;;;;0.47;0.00;;;35.90;28.00;;;;;;5078349;28;20101;-52
2022/07/15 12:46:19;;;;;;;0.10;0.10;;;36.00;27.90;;;;;;5087070;28;20040;-71
2022/07/15 12:48:47;;;;;;;0.10;0.03;;;36.00;28.20;;;;;;5086654;28;20215;-59
2022/07/15 12:51:16;;;;;;;0.00;0.00;;;36.00;27.60;;;;;;5085708;28;20044;-60
2022/07/15 12:53:45;;;;;;;0.10;0.10;;;36.10;28.00;;;;;;5091591;28;20044;-60
2022/07/15 12:56:12;;;;;;;0.10;0.10;;;36.10;27.30;;;;;;5087926;28;20052;-58
2022/07/15 12:58:39;;;;;;;0.10;0.00;;;36.10;27.10;;;;;;5076726;28;20048;-59
2022/07/15 13:01:09;;;;;;;0.00;0.00;;;36.20;27.00;;;;;;5089973;28;20125;-60
2022/07/15 13:03:37;;;;;;;0.08;0.00;;;36.20;26.90;;;;;;5087238;28;20037;-59
2022/07/15 13:06:05;;;;;;;0.10;0.08;;;36.30;26.90;;;;;;5093670;28;20048;-59
2022/07/15 13:08:34;;;;;;;0.10;0.10;;;36.30;26.80;;;;;;5082833;28;20052;-58
2022/07/15 13:11:04;;;;;;;0.10;0.00;;;36.40;26.80;;;;;;5080918;28;20055;-60
2022/07/15 13:13:33;;;;;;;0.10;0.10;;;36.50;26.70;;;;;;5083778;28;21086;-59